sensor_id;sensor_type;location;lat;lon;timestamp;P1;durP1;ratioP1;P2;durP2;ratioP2
42670;SDS011;28283;55.426;37.756;2024-01-07T00:02:34;10.07;;;5.20;;
42670;SDS011;28283;55.426;37.756;2024-01-07T00:07:34;20.58;;;10.75;;
42670;SDS011;28283;55.426;37.756;2024-01-07T00:12:35;23.48;;;11.20;;
42670;SDS011;28283;55.426;37.756;2024-01-07T00:17:35;12.15;;;6.10;;
42670;SDS011;28283;55.426;37.756;2024-01-07T00:22:36;27.33;;;12.07;;
42670;SDS011;28283;55.426;37.756;2024-01-07T00:27:36;8.65;;;4.20;;
42670;SDS011;28283;55.426;37.756;2024-01-07T00:32:37;21.60;;;7.72;;
42670;SDS011;28283;55.426;37.756;2024-01-07T00:37:38;17.92;;;8.15;;
42670;SDS011;28283;55.426;37.756;2024-01-07T00:42:38;31.92;;;14.13;;
42670;SDS011;28283;55.426;37.756;2024-01-07T00:47:39;19.90;;;10.05;;
42670;SDS011;28283;55.426;37.756;2024-01-07T00:52:40;19.75;;;10.38;;
42670;SDS011;28283;55.426;37.756;2024-01-07T00:57:43;19.38;;;8.48;;
42670;SDS011;28283;55.426;37.756;2024-01-07T01:02:45;11.07;;;7.43;;
42670;SDS011;28283;55.426;37.756;2024-01-07T01:07:46;13.18;;;6.10;;
42670;SDS011;28283;55.426;37.756;2024-01-07T01:12:46;12.02;;;5.47;;
42670;SDS011;28283;55.426;37.756;2024-01-07T01:17:47;14.50;;;6.70;;
42670;SDS011;28283;55.426;37.756;2024-01-07T01:22:48;12.80;;;6.45;;
42670;SDS011;28283;55.426;37.756;2024-01-07T01:27:48;17.70;;;6.30;;
42670;SDS011;28283;55.426;37.756;2024-01-07T01:32:49;13.52;;;6.30;;
42670;SDS011;28283;55.426;37.756;2024-01-07T01:37:49;17.02;;;8.07;;
42670;SDS011;28283;55.426;37.756;2024-01-07T01:42:50;12.38;;;5.88;;
42670;SDS011;28283;55.426;37.756;2024-01-07T01:47:51;16.38;;;6.70;;
42670;SDS011;28283;55.426;37.756;2024-01-07T01:52:52;11.55;;;6.50;;
42670;SDS011;28283;55.426;37.756;2024-01-07T01:57:54;13.77;;;6.50;;
42670;SDS011;28283;55.426;37.756;2024-01-07T02:02:56;13.15;;;6.88;;
42670;SDS011;28283;55.426;37.756;2024-01-07T02:07:57;12.02;;;7.07;;
42670;SDS011;28283;55.426;37.756;2024-01-07T02:12:58;9.10;;;4.82;;
42670;SDS011;28283;55.426;37.756;2024-01-07T02:17:59;13.10;;;5.22;;
42670;SDS011;28283;55.426;37.756;2024-01-07T02:23:00;16.02;;;6.32;;
42670;SDS011;28283;55.426;37.756;2024-01-07T02:28:01;8.95;;;3.65;;
42670;SDS011;28283;55.426;37.756;2024-01-07T02:33:02;13.65;;;5.53;;
42670;SDS011;28283;55.426;37.756;2024-01-07T02:38:03;10.05;;;5.53;;
42670;SDS011;28283;55.426;37.756;2024-01-07T02:43:04;15.50;;;5.50;;
42670;SDS011;28283;55.426;37.756;2024-01-07T02:48:05;12.40;;;6.50;;
42670;SDS011;28283;55.426;37.756;2024-01-07T02:53:06;13.98;;;5.40;;
42670;SDS011;28283;55.426;37.756;2024-01-07T02:58:08;8.93;;;4.35;;
42670;SDS011;28283;55.426;37.756;2024-01-07T03:03:09;12.63;;;7.00;;
42670;SDS011;28283;55.426;37.756;2024-01-07T03:08:10;14.30;;;6.32;;
42670;SDS011;28283;55.426;37.756;2024-01-07T03:13:10;10.45;;;6.05;;
42670;SDS011;28283;55.426;37.756;2024-01-07T03:18:11;18.17;;;6.63;;
42670;SDS011;28283;55.426;37.756;2024-01-07T03:23:12;8.75;;;5.05;;
42670;SDS011;28283;55.426;37.756;2024-01-07T03:28:12;9.82;;;4.90;;
42670;SDS011;28283;55.426;37.756;2024-01-07T03:33:13;4.82;;;3.38;;
42670;SDS011;28283;55.426;37.756;2024-01-07T03:38:13;5.65;;;4.00;;
42670;SDS011;28283;55.426;37.756;2024-01-07T03:43:14;11.25;;;6.07;;
42670;SDS011;28283;55.426;37.756;2024-01-07T03:48:14;12.15;;;5.18;;
42670;SDS011;28283;55.426;37.756;2024-01-07T03:53:15;10.73;;;5.00;;
42670;SDS011;28283;55.426;37.756;2024-01-07T03:58:16;17.50;;;7.38;;
42670;SDS011;28283;55.426;37.756;2024-01-07T04:03:17;12.75;;;6.10;;
42670;SDS011;28283;55.426;37.756;2024-01-07T04:08:18;13.98;;;5.05;;
42670;SDS011;28283;55.426;37.756;2024-01-07T04:13:18;10.68;;;4.72;;
42670;SDS011;28283;55.426;37.756;2024-01-07T04:18:19;8.07;;;3.17;;
42670;SDS011;28283;55.426;37.756;2024-01-07T04:23:19;17.67;;;7.30;;
42670;SDS011;28283;55.426;37.756;2024-01-07T04:28:20;10.57;;;4.78;;
42670;SDS011;28283;55.426;37.756;2024-01-07T04:33:21;8.75;;;4.05;;
42670;SDS011;28283;55.426;37.756;2024-01-07T04:38:22;6.05;;;2.90;;
42670;SDS011;28283;55.426;37.756;2024-01-07T04:43:22;5.70;;;3.55;;
42670;SDS011;28283;55.426;37.756;2024-01-07T04:48:23;14.15;;;4.95;;
42670;SDS011;28283;55.426;37.756;2024-01-07T04:53:23;11.88;;;5.68;;
42670;SDS011;28283;55.426;37.756;2024-01-07T04:58:24;13.25;;;5.43;;
42670;SDS011;28283;55.426;37.756;2024-01-07T05:03:25;10.85;;;4.63;;
42670;SDS011;28283;55.426;37.756;2024-01-07T05:08:26;7.18;;;4.13;;
42670;SDS011;28283;55.426;37.756;2024-01-07T05:13:27;13.88;;;5.30;;
42670;SDS011;28283;55.426;37.756;2024-01-07T05:18:27;5.82;;;3.60;;
42670;SDS011;28283;55.426;37.756;2024-01-07T05:23:28;13.55;;;5.55;;
42670;SDS011;28283;55.426;37.756;2024-01-07T05:28:28;12.98;;;5.72;;
42670;SDS011;28283;55.426;37.756;2024-01-07T05:33:29;9.65;;;5.35;;
42670;SDS011;28283;55.426;37.756;2024-01-07T05:38:30;8.45;;;4.85;;
42670;SDS011;28283;55.426;37.756;2024-01-07T05:43:30;6.75;;;4.47;;
42670;SDS011;28283;55.426;37.756;2024-01-07T05:48:40;14.50;;;5.65;;
42670;SDS011;28283;55.426;37.756;2024-01-07T05:53:43;11.40;;;5.63;;
42670;SDS011;28283;55.426;37.756;2024-01-07T05:58:44;8.57;;;4.72;;
42670;SDS011;28283;55.426;37.756;2024-01-07T06:03:45;7.63;;;4.47;;
42670;SDS011;28283;55.426;37.756;2024-01-07T06:08:47;11.02;;;5.85;;
42670;SDS011;28283;55.426;37.756;2024-01-07T06:13:48;18.38;;;6.07;;
42670;SDS011;28283;55.426;37.756;2024-01-07T06:18:48;11.52;;;6.35;;
42670;SDS011;28283;55.426;37.756;2024-01-07T06:23:49;12.63;;;5.85;;
42670;SDS011;28283;55.426;37.756;2024-01-07T06:28:50;12.18;;;6.35;;
42670;SDS011;28283;55.426;37.756;2024-01-07T06:33:50;12.07;;;6.93;;
42670;SDS011;28283;55.426;37.756;2024-01-07T06:38:51;7.05;;;4.72;;
42670;SDS011;28283;55.426;37.756;2024-01-07T06:43:52;12.10;;;7.03;;
42670;SDS011;28283;55.426;37.756;2024-01-07T06:48:57;9.00;;;3.65;;
42670;SDS011;28283;55.426;37.756;2024-01-07T06:53:57;8.52;;;3.55;;
42670;SDS011;28283;55.426;37.756;2024-01-07T06:58:58;6.90;;;4.30;;
42670;SDS011;28283;55.426;37.756;2024-01-07T07:03:58;8.88;;;4.18;;
42670;SDS011;28283;55.426;37.756;2024-01-07T07:09:00;3.65;;;3.03;;
42670;SDS011;28283;55.426;37.756;2024-01-07T07:14:01;9.15;;;4.53;;
42670;SDS011;28283;55.426;37.756;2024-01-07T07:19:02;9.55;;;4.70;;
42670;SDS011;28283;55.426;37.756;2024-01-07T07:24:02;8.77;;;4.18;;
42670;SDS011;28283;55.426;37.756;2024-01-07T07:29:03;4.68;;;3.08;;
42670;SDS011;28283;55.426;37.756;2024-01-07T07:34:04;7.32;;;3.70;;
42670;SDS011;28283;55.426;37.756;2024-01-07T07:39:05;15.68;;;6.57;;
42670;SDS011;28283;55.426;37.756;2024-01-07T07:44:06;12.25;;;6.53;;
42670;SDS011;28283;55.426;37.756;2024-01-07T07:49:07;11.88;;;8.02;;
42670;SDS011;28283;55.426;37.756;2024-01-07T07:54:07;11.85;;;7.55;;
42670;SDS011;28283;55.426;37.756;2024-01-07T07:59:08;16.20;;;8.20;;
42670;SDS011;28283;55.426;37.756;2024-01-07T08:04:09;8.15;;;5.55;;
42670;SDS011;28283;55.426;37.756;2024-01-07T08:09:10;24.55;;;9.88;;
42670;SDS011;28283;55.426;37.756;2024-01-07T08:14:11;21.02;;;10.70;;
42670;SDS011;28283;55.426;37.756;2024-01-07T08:19:12;20.08;;;7.20;;
42670;SDS011;28283;55.426;37.756;2024-01-07T08:24:12;7.38;;;5.78;;
42670;SDS011;28283;55.426;37.756;2024-01-07T08:29:13;8.48;;;5.68;;
42670;SDS011;28283;55.426;37.756;2024-01-07T08:34:14;6.55;;;5.93;;
42670;SDS011;28283;55.426;37.756;2024-01-07T08:39:15;13.75;;;8.98;;
42670;SDS011;28283;55.426;37.756;2024-01-07T08:44:16;13.25;;;7.30;;
42670;SDS011;28283;55.426;37.756;2024-01-07T08:49:17;9.80;;;4.25;;
42670;SDS011;28283;55.426;37.756;2024-01-07T08:54:17;11.05;;;4.93;;
42670;SDS011;28283;55.426;37.756;2024-01-07T08:59:18;7.82;;;5.65;;
42670;SDS011;28283;55.426;37.756;2024-01-07T09:04:19;9.93;;;6.43;;
42670;SDS011;28283;55.426;37.756;2024-01-07T09:09:20;11.88;;;4.65;;
42670;SDS011;28283;55.426;37.756;2024-01-07T09:14:20;6.40;;;3.60;;
42670;SDS011;28283;55.426;37.756;2024-01-07T09:19:21;16.13;;;6.38;;
42670;SDS011;28283;55.426;37.756;2024-01-07T09:24:22;13.98;;;6.50;;
42670;SDS011;28283;55.426;37.756;2024-01-07T09:29:23;7.28;;;4.93;;
42670;SDS011;28283;55.426;37.756;2024-01-07T09:34:23;14.77;;;8.18;;
42670;SDS011;28283;55.426;37.756;2024-01-07T09:39:24;16.73;;;7.63;;
42670;SDS011;28283;55.426;37.756;2024-01-07T09:44:26;18.80;;;10.27;;
42670;SDS011;28283;55.426;37.756;2024-01-07T09:49:26;17.85;;;9.68;;
42670;SDS011;28283;55.426;37.756;2024-01-07T09:54:28;12.73;;;7.00;;
42670;SDS011;28283;55.426;37.756;2024-01-07T09:59:29;10.45;;;6.20;;
42670;SDS011;28283;55.426;37.756;2024-01-07T10:04:30;24.13;;;11.88;;
42670;SDS011;28283;55.426;37.756;2024-01-07T10:09:33;19.20;;;9.80;;
42670;SDS011;28283;55.426;37.756;2024-01-07T10:14:34;24.77;;;11.73;;
42670;SDS011;28283;55.426;37.756;2024-01-07T10:19:35;16.17;;;6.72;;
42670;SDS011;28283;55.426;37.756;2024-01-07T10:24:36;25.10;;;9.35;;
42670;SDS011;28283;55.426;37.756;2024-01-07T10:29:38;11.63;;;7.20;;
42670;SDS011;28283;55.426;37.756;2024-01-07T10:34:39;16.70;;;6.55;;
42670;SDS011;28283;55.426;37.756;2024-01-07T10:39:43;12.70;;;6.55;;
42670;SDS011;28283;55.426;37.756;2024-01-07T10:44:44;10.98;;;7.47;;
42670;SDS011;28283;55.426;37.756;2024-01-07T10:49:44;13.43;;;7.40;;
42670;SDS011;28283;55.426;37.756;2024-01-07T10:54:48;10.50;;;6.35;;
42670;SDS011;28283;55.426;37.756;2024-01-07T10:59:49;7.32;;;4.97;;
42670;SDS011;28283;55.426;37.756;2024-01-07T11:04:54;20.98;;;7.82;;
42670;SDS011;28283;55.426;37.756;2024-01-07T11:15:07;9.52;;;4.30;;
42670;SDS011;28283;55.426;37.756;2024-01-07T11:20:18;16.60;;;6.60;;
42670;SDS011;28283;55.426;37.756;2024-01-07T11:25:38;9.13;;;5.38;;
42670;SDS011;28283;55.426;37.756;2024-01-07T11:30:39;19.55;;;8.52;;
42670;SDS011;28283;55.426;37.756;2024-01-07T11:36:03;12.50;;;7.18;;
42670;SDS011;28283;55.426;37.756;2024-01-07T11:41:04;15.20;;;8.00;;
42670;SDS011;28283;55.426;37.756;2024-01-07T11:46:06;14.85;;;7.00;;
42670;SDS011;28283;55.426;37.756;2024-01-07T11:51:07;6.93;;;3.38;;
42670;SDS011;28283;55.426;37.756;2024-01-07T11:56:08;21.23;;;9.10;;
42670;SDS011;28283;55.426;37.756;2024-01-07T12:01:09;16.33;;;7.40;;
42670;SDS011;28283;55.426;37.756;2024-01-07T12:06:10;12.23;;;7.50;;
42670;SDS011;28283;55.426;37.756;2024-01-07T12:11:14;18.05;;;9.52;;
42670;SDS011;28283;55.426;37.756;2024-01-07T12:16:16;11.27;;;4.25;;
42670;SDS011;28283;55.426;37.756;2024-01-07T12:21:20;21.65;;;6.85;;
42670;SDS011;28283;55.426;37.756;2024-01-07T12:26:27;18.17;;;7.85;;
42670;SDS011;28283;55.426;37.756;2024-01-07T12:31:28;14.95;;;6.55;;
42670;SDS011;28283;55.426;37.756;2024-01-07T12:36:31;9.45;;;5.78;;
42670;SDS011;28283;55.426;37.756;2024-01-07T12:41:33;24.55;;;9.18;;
42670;SDS011;28283;55.426;37.756;2024-01-07T12:46:34;17.02;;;9.45;;
42670;SDS011;28283;55.426;37.756;2024-01-07T12:51:35;18.58;;;9.10;;
42670;SDS011;28283;55.426;37.756;2024-01-07T12:56:36;9.75;;;5.32;;
42670;SDS011;28283;55.426;37.756;2024-01-07T13:01:37;26.88;;;10.45;;
42670;SDS011;28283;55.426;37.756;2024-01-07T13:06:37;14.32;;;7.28;;
42670;SDS011;28283;55.426;37.756;2024-01-07T13:11:38;26.00;;;8.75;;
42670;SDS011;28283;55.426;37.756;2024-01-07T13:16:39;17.55;;;8.25;;
42670;SDS011;28283;55.426;37.756;2024-01-07T13:21:40;10.10;;;6.82;;
42670;SDS011;28283;55.426;37.756;2024-01-07T13:26:41;6.68;;;4.85;;
42670;SDS011;28283;55.426;37.756;2024-01-07T13:31:42;18.73;;;7.65;;
42670;SDS011;28283;55.426;37.756;2024-01-07T13:36:43;10.80;;;6.05;;
42670;SDS011;28283;55.426;37.756;2024-01-07T13:41:44;14.15;;;6.80;;
42670;SDS011;28283;55.426;37.756;2024-01-07T13:46:45;28.50;;;11.93;;
42670;SDS011;28283;55.426;37.756;2024-01-07T13:51:46;26.58;;;11.50;;
42670;SDS011;28283;55.426;37.756;2024-01-07T13:56:47;15.40;;;9.23;;
42670;SDS011;28283;55.426;37.756;2024-01-07T14:01:48;17.50;;;9.13;;
42670;SDS011;28283;55.426;37.756;2024-01-07T14:06:53;19.02;;;7.80;;
42670;SDS011;28283;55.426;37.756;2024-01-07T14:11:57;15.90;;;7.70;;
42670;SDS011;28283;55.426;37.756;2024-01-07T14:16:58;18.48;;;8.70;;
42670;SDS011;28283;55.426;37.756;2024-01-07T14:21:59;10.88;;;7.60;;
42670;SDS011;28283;55.426;37.756;2024-01-07T14:27:00;23.63;;;7.68;;
42670;SDS011;28283;55.426;37.756;2024-01-07T14:32:01;21.80;;;9.40;;
42670;SDS011;28283;55.426;37.756;2024-01-07T14:37:02;11.68;;;8.98;;
42670;SDS011;28283;55.426;37.756;2024-01-07T14:42:03;12.25;;;6.30;;
42670;SDS011;28283;55.426;37.756;2024-01-07T14:47:04;7.75;;;5.45;;
42670;SDS011;28283;55.426;37.756;2024-01-07T14:52:05;20.27;;;10.13;;
42670;SDS011;28283;55.426;37.756;2024-01-07T14:57:06;18.55;;;9.65;;
42670;SDS011;28283;55.426;37.756;2024-01-07T15:02:08;15.50;;;8.52;;
42670;SDS011;28283;55.426;37.756;2024-01-07T15:07:09;21.45;;;9.82;;
42670;SDS011;28283;55.426;37.756;2024-01-07T15:12:10;21.40;;;9.55;;
42670;SDS011;28283;55.426;37.756;2024-01-07T15:17:11;16.45;;;7.30;;
42670;SDS011;28283;55.426;37.756;2024-01-07T15:22:11;24.45;;;10.30;;
42670;SDS011;28283;55.426;37.756;2024-01-07T15:27:13;21.85;;;7.95;;
42670;SDS011;28283;55.426;37.756;2024-01-07T15:32:13;15.88;;;8.90;;
42670;SDS011;28283;55.426;37.756;2024-01-07T15:37:14;19.00;;;10.63;;
42670;SDS011;28283;55.426;37.756;2024-01-07T15:42:14;16.77;;;9.65;;
42670;SDS011;28283;55.426;37.756;2024-01-07T15:47:15;22.35;;;7.18;;
42670;SDS011;28283;55.426;37.756;2024-01-07T15:52:15;14.82;;;7.30;;
42670;SDS011;28283;55.426;37.756;2024-01-07T15:57:16;12.40;;;8.10;;
42670;SDS011;28283;55.426;37.756;2024-01-07T16:02:17;15.65;;;8.15;;
42670;SDS011;28283;55.426;37.756;2024-01-07T16:07:20;14.20;;;9.02;;
42670;SDS011;28283;55.426;37.756;2024-01-07T16:12:21;9.13;;;7.10;;
42670;SDS011;28283;55.426;37.756;2024-01-07T16:17:22;24.58;;;11.02;;
42670;SDS011;28283;55.426;37.756;2024-01-07T16:22:23;12.20;;;6.45;;
42670;SDS011;28283;55.426;37.756;2024-01-07T16:27:24;11.73;;;6.40;;
42670;SDS011;28283;55.426;37.756;2024-01-07T16:32:24;13.65;;;7.60;;
42670;SDS011;28283;55.426;37.756;2024-01-07T16:37:25;10.32;;;9.35;;
42670;SDS011;28283;55.426;37.756;2024-01-07T16:42:26;19.75;;;11.77;;
42670;SDS011;28283;55.426;37.756;2024-01-07T16:47:26;15.25;;;7.65;;
42670;SDS011;28283;55.426;37.756;2024-01-07T16:52:27;15.77;;;8.95;;
42670;SDS011;28283;55.426;37.756;2024-01-07T16:57:28;10.05;;;5.28;;
42670;SDS011;28283;55.426;37.756;2024-01-07T17:02:29;4.40;;;4.03;;
42670;SDS011;28283;55.426;37.756;2024-01-07T17:07:29;7.75;;;5.55;;
42670;SDS011;28283;55.426;37.756;2024-01-07T17:12:30;18.60;;;9.93;;
42670;SDS011;28283;55.426;37.756;2024-01-07T17:17:31;29.50;;;12.45;;
42670;SDS011;28283;55.426;37.756;2024-01-07T17:22:31;27.00;;;12.02;;
42670;SDS011;28283;55.426;37.756;2024-01-07T17:27:32;10.88;;;5.55;;
42670;SDS011;28283;55.426;37.756;2024-01-07T17:32:33;20.70;;;9.15;;
42670;SDS011;28283;55.426;37.756;2024-01-07T17:37:34;21.35;;;7.40;;
42670;SDS011;28283;55.426;37.756;2024-01-07T17:42:37;22.85;;;10.15;;
42670;SDS011;28283;55.426;37.756;2024-01-07T17:47:38;17.63;;;8.65;;
42670;SDS011;28283;55.426;37.756;2024-01-07T17:52:38;22.13;;;8.55;;
42670;SDS011;28283;55.426;37.756;2024-01-07T17:57:39;21.80;;;6.90;;
42670;SDS011;28283;55.426;37.756;2024-01-07T18:02:40;12.77;;;6.45;;
42670;SDS011;28283;55.426;37.756;2024-01-07T18:07:41;19.85;;;8.93;;
42670;SDS011;28283;55.426;37.756;2024-01-07T18:12:42;27.13;;;10.48;;
42670;SDS011;28283;55.426;37.756;2024-01-07T18:17:44;27.65;;;9.77;;
42670;SDS011;28283;55.426;37.756;2024-01-07T18:22:46;24.80;;;10.43;;
42670;SDS011;28283;55.426;37.756;2024-01-07T18:27:47;13.10;;;7.53;;
42670;SDS011;28283;55.426;37.756;2024-01-07T18:32:49;18.33;;;7.75;;
42670;SDS011;28283;55.426;37.756;2024-01-07T18:37:50;22.95;;;9.90;;
42670;SDS011;28283;55.426;37.756;2024-01-07T18:42:51;18.17;;;9.13;;
42670;SDS011;28283;55.426;37.756;2024-01-07T18:47:52;18.13;;;7.45;;
42670;SDS011;28283;55.426;37.756;2024-01-07T18:52:53;19.58;;;8.95;;
42670;SDS011;28283;55.426;37.756;2024-01-07T18:57:54;16.98;;;8.35;;
42670;SDS011;28283;55.426;37.756;2024-01-07T19:02:55;18.08;;;8.80;;
42670;SDS011;28283;55.426;37.756;2024-01-07T19:07:56;19.17;;;8.02;;
42670;SDS011;28283;55.426;37.756;2024-01-07T19:12:58;14.63;;;8.18;;
42670;SDS011;28283;55.426;37.756;2024-01-07T19:17:58;18.42;;;8.00;;
42670;SDS011;28283;55.426;37.756;2024-01-07T19:22:59;21.63;;;8.23;;
42670;SDS011;28283;55.426;37.756;2024-01-07T19:28:01;20.63;;;8.70;;
42670;SDS011;28283;55.426;37.756;2024-01-07T19:33:02;18.60;;;10.05;;
42670;SDS011;28283;55.426;37.756;2024-01-07T19:38:03;18.13;;;7.47;;
42670;SDS011;28283;55.426;37.756;2024-01-07T19:43:04;19.33;;;8.15;;
42670;SDS011;28283;55.426;37.756;2024-01-07T19:48:04;33.05;;;12.80;;
42670;SDS011;28283;55.426;37.756;2024-01-07T19:53:05;15.05;;;8.15;;
42670;SDS011;28283;55.426;37.756;2024-01-07T19:58:06;3.65;;;2.65;;
42670;SDS011;28283;55.426;37.756;2024-01-07T20:03:10;11.18;;;6.32;;
42670;SDS011;28283;55.426;37.756;2024-01-07T20:08:11;16.65;;;8.00;;
42670;SDS011;28283;55.426;37.756;2024-01-07T20:13:12;20.38;;;9.02;;
42670;SDS011;28283;55.426;37.756;2024-01-07T20:18:13;17.13;;;8.82;;
42670;SDS011;28283;55.426;37.756;2024-01-07T20:23:14;11.60;;;8.18;;
42670;SDS011;28283;55.426;37.756;2024-01-07T20:28:15;18.65;;;9.02;;
42670;SDS011;28283;55.426;37.756;2024-01-07T20:33:16;20.33;;;10.02;;
42670;SDS011;28283;55.426;37.756;2024-01-07T20:38:16;28.00;;;13.07;;
42670;SDS011;28283;55.426;37.756;2024-01-07T20:43:20;32.10;;;11.85;;
42670;SDS011;28283;55.426;37.756;2024-01-07T20:48:21;24.00;;;13.13;;
42670;SDS011;28283;55.426;37.756;2024-01-07T20:53:22;22.75;;;10.68;;
42670;SDS011;28283;55.426;37.756;2024-01-07T20:58:22;19.70;;;10.13;;
42670;SDS011;28283;55.426;37.756;2024-01-07T21:03:23;29.13;;;12.13;;
42670;SDS011;28283;55.426;37.756;2024-01-07T21:08:25;18.98;;;9.93;;
42670;SDS011;28283;55.426;37.756;2024-01-07T21:13:28;16.08;;;7.32;;
42670;SDS011;28283;55.426;37.756;2024-01-07T21:18:28;32.17;;;10.98;;
42670;SDS011;28283;55.426;37.756;2024-01-07T21:23:29;20.80;;;9.35;;
42670;SDS011;28283;55.426;37.756;2024-01-07T21:28:31;31.92;;;11.18;;
42670;SDS011;28283;55.426;37.756;2024-01-07T21:33:32;29.67;;;11.32;;
42670;SDS011;28283;55.426;37.756;2024-01-07T21:38:33;22.70;;;10.88;;
42670;SDS011;28283;55.426;37.756;2024-01-07T21:43:34;19.80;;;10.98;;
42670;SDS011;28283;55.426;37.756;2024-01-07T21:48:34;23.33;;;10.57;;
42670;SDS011;28283;55.426;37.756;2024-01-07T21:53:35;26.83;;;9.82;;
42670;SDS011;28283;55.426;37.756;2024-01-07T21:58:36;16.67;;;8.52;;
42670;SDS011;28283;55.426;37.756;2024-01-07T22:03:38;23.33;;;9.55;;
42670;SDS011;28283;55.426;37.756;2024-01-07T22:08:39;27.23;;;10.93;;
42670;SDS011;28283;55.426;37.756;2024-01-07T22:13:41;15.70;;;9.02;;
42670;SDS011;28283;55.426;37.756;2024-01-07T22:18:43;17.10;;;8.85;;
42670;SDS011;28283;55.426;37.756;2024-01-07T22:23:43;26.05;;;10.32;;
42670;SDS011;28283;55.426;37.756;2024-01-07T22:28:45;21.88;;;9.38;;
42670;SDS011;28283;55.426;37.756;2024-01-07T22:33:46;21.10;;;9.27;;
42670;SDS011;28283;55.426;37.756;2024-01-07T22:38:47;14.25;;;7.82;;
42670;SDS011;28283;55.426;37.756;2024-01-07T22:43:48;12.75;;;8.85;;
42670;SDS011;28283;55.426;37.756;2024-01-07T22:48:48;25.23;;;11.68;;
42670;SDS011;28283;55.426;37.756;2024-01-07T22:53:49;29.55;;;12.48;;
42670;SDS011;28283;55.426;37.756;2024-01-07T22:58:50;17.77;;;8.90;;
42670;SDS011;28283;55.426;37.756;2024-01-07T23:03:51;22.75;;;11.73;;
42670;SDS011;28283;55.426;37.756;2024-01-07T23:08:54;28.95;;;13.05;;
42670;SDS011;28283;55.426;37.756;2024-01-07T23:13:58;23.75;;;12.02;;
42670;SDS011;28283;55.426;37.756;2024-01-07T23:18:59;29.55;;;12.52;;
42670;SDS011;28283;55.426;37.756;2024-01-07T23:24:00;25.83;;;11.93;;
42670;SDS011;28283;55.426;37.756;2024-01-07T23:29:00;27.88;;;13.25;;
42670;SDS011;28283;55.426;37.756;2024-01-07T23:34:01;33.80;;;12.80;;
42670;SDS011;28283;55.426;37.756;2024-01-07T23:39:05;25.40;;;11.45;;
42670;SDS011;28283;55.426;37.756;2024-01-07T23:44:06;27.40;;;10.85;;
42670;SDS011;28283;55.426;37.756;2024-01-07T23:49:06;32.17;;;13.00;;
42670;SDS011;28283;55.426;37.756;2024-01-07T23:54:07;18.55;;;9.90;;
42670;SDS011;28283;55.426;37.756;2024-01-07T23:59:07;17.70;;;10.90;;
